Time;durP1;ratioP1;P1;durP2;ratioP2;P2;SDS_P1;SDS_P2;PMS_P1;PMS_P2;Temp;Humidity;BMP_temperature;BMP_pressure;BME280_temperature;BME280_humidity;BME280_pressure;Samples;Min_cycle;Max_cycle;Signal;HPM_P1;HPM_P2
2021/12/12 00:02:21;;;;;;;6.93;2.92;;;7.10;73.20;;;;;;5024093;28;20337;-70
2021/12/12 00:04:49;;;;;;;5.65;2.28;;;7.10;73.60;;;;;;5023002;28;20057;-70
2021/12/12 00:07:22;;;;;;;7.00;2.08;;;7.10;73.80;;;;;;5024151;28;20037;-70
2021/12/12 00:09:52;;;;;;;6.85;2.58;;;7.00;74.20;;;;;;5023674;28;20034;-70
2021/12/12 00:12:28;;;;;;;7.53;2.00;;;7.00;74.60;;;;;;5023333;28;20030;-70
2021/12/12 00:14:54;;;;;;;6.72;1.95;;;6.90;74.90;;;;;;5023407;28;20064;-70
2021/12/12 00:17:22;;;;;;;6.95;2.38;;;6.90;74.70;;;;;;5024298;28;20057;-70
2021/12/12 00:19:49;;;;;;;5.53;2.13;;;6.80;74.90;;;;;;5046385;28;20039;-71
2021/12/12 00:22:18;;;;;;;7.93;2.15;;;6.80;75.40;;;;;;5053107;28;20051;-71
2021/12/12 00:24:45;;;;;;;7.35;2.22;;;6.70;75.30;;;;;;5054394;28;20083;-70
2021/12/12 00:27:11;;;;;;;6.60;2.42;;;6.70;75.60;;;;;;5052209;28;20045;-70
2021/12/12 00:29:37;;;;;;;9.15;2.83;;;6.70;76.00;;;;;;5054933;28;20416;-70
2021/12/12 00:32:13;;;;;;;6.32;2.30;;;6.70;75.60;;;;;;5053874;28;20029;-71
2021/12/12 00:34:49;;;;;;;6.53;2.13;;;6.60;75.80;;;;;;5054330;28;20026;-70
2021/12/12 00:37:16;;;;;;;8.43;2.78;;;6.60;76.10;;;;;;5054354;28;20445;-70
2021/12/12 00:39:49;;;;;;;8.05;2.42;;;6.60;76.10;;;;;;5060098;28;20569;-70
2021/12/12 00:42:18;;;;;;;7.50;2.13;;;6.60;76.50;;;;;;5058457;28;20033;-70
2021/12/12 00:44:48;;;;;;;4.50;1.90;;;6.70;76.20;;;;;;5060080;28;20112;-70
2021/12/12 00:47:15;;;;;;;7.13;2.53;;;6.70;75.80;;;;;;5060031;28;20024;-70
2021/12/12 00:49:42;;;;;;;6.90;2.20;;;6.70;75.80;;;;;;5053991;28;20485;-70
2021/12/12 00:52:11;;;;;;;6.13;2.03;;;6.60;76.20;;;;;;5056536;28;20040;-71
2021/12/12 00:54:38;;;;;;;6.78;2.08;;;6.70;76.50;;;;;;5060040;28;20511;-70
2021/12/12 00:57:14;;;;;;;5.30;2.30;;;6.60;75.70;;;;;;5049790;28;20120;-70
2021/12/12 00:59:44;;;;;;;9.13;2.42;;;6.60;76.50;;;;;;5059404;28;20036;-70
2021/12/12 01:02:16;;;;;;;7.22;2.30;;;6.60;76.10;;;;;;5057754;28;20090;-70
2021/12/12 01:04:47;;;;;;;8.02;2.40;;;6.60;76.20;;;;;;5055390;28;20127;-70
2021/12/12 01:07:17;;;;;;;7.05;2.40;;;6.70;76.20;;;;;;5055452;28;20072;-71
2021/12/12 01:09:50;;;;;;;9.23;2.95;;;6.70;76.30;;;;;;5043168;28;20024;-70
2021/12/12 01:12:19;;;;;;;7.07;2.75;;;6.80;75.80;;;;;;5050809;28;20124;-70
2021/12/12 01:15:01;;;;;;;6.80;2.15;;;6.80;75.70;;;;;;5049201;28;20036;-70
2021/12/12 01:17:38;;;;;;;6.10;2.50;;;6.70;75.90;;;;;;5050865;28;20132;-70
2021/12/12 01:20:24;;;;;;;5.25;2.30;;;6.70;75.80;;;;;;5052077;28;20041;-70
2021/12/12 01:22:52;;;;;;;6.97;2.20;;;6.70;75.90;;;;;;5047595;28;20056;-70
2021/12/12 01:25:30;;;;;;;9.02;2.30;;;6.80;76.30;;;;;;5050176;28;20078;-70
2021/12/12 01:27:57;;;;;;;7.20;2.17;;;6.80;76.20;;;;;;5047804;28;20053;-70
2021/12/12 01:30:24;;;;;;;7.60;2.28;;;6.70;77.00;;;;;;5054801;28;20021;-70
2021/12/12 01:32:51;;;;;;;7.20;2.50;;;6.70;76.80;;;;;;5059264;28;20132;-70
2021/12/12 01:35:20;;;;;;;6.32;2.20;;;6.70;76.90;;;;;;5056307;28;20056;-70
2021/12/12 01:40:49;;;;;;;6.35;2.00;;;6.70;77.00;;;;;;5049914;28;20103;-70
2021/12/12 01:43:19;;;;;;;8.70;2.20;;;6.70;77.00;;;;;;5050416;28;20123;-71
2021/12/12 01:45:50;;;;;;;8.93;2.42;;;6.60;77.10;;;;;;5054524;28;20033;-70
2021/12/12 01:48:27;;;;;;;7.10;2.72;;;6.60;77.20;;;;;;5055540;28;20029;-71
2021/12/12 01:51:00;;;;;;;5.68;2.25;;;6.50;77.40;;;;;;5058600;28;20025;-70
2021/12/12 01:53:30;;;;;;;6.47;2.45;;;6.50;78.00;;;;;;5057665;28;20087;-70
2021/12/12 01:56:06;;;;;;;9.98;2.22;;;6.40;77.80;;;;;;5046301;28;20063;-70
2021/12/12 01:58:34;;;;;;;7.35;1.80;;;6.40;77.90;;;;;;5047502;28;20112;-70
2021/12/12 02:01:07;;;;;;;6.50;2.08;;;6.40;78.80;;;;;;5051136;28;20059;-70
2021/12/12 02:03:37;;;;;;;8.32;2.08;;;6.40;78.40;;;;;;5053873;28;20116;-70
2021/12/12 02:06:08;;;;;;;6.07;2.17;;;6.40;77.90;;;;;;5050752;28;20048;-70
2021/12/12 02:08:36;;;;;;;8.18;2.20;;;6.40;78.20;;;;;;5054595;28;20049;-70
2021/12/12 02:11:05;;;;;;;6.50;2.45;;;6.40;79.00;;;;;;5050686;28;20040;-70
2021/12/12 02:13:36;;;;;;;5.68;1.95;;;6.30;79.30;;;;;;5048836;28;20025;-71
2021/12/12 02:16:03;;;;;;;5.80;1.77;;;6.30;79.20;;;;;;5052193;28;20025;-70
2021/12/12 02:18:34;;;;;;;7.32;1.88;;;6.30;79.40;;;;;;5053326;28;20026;-71
2021/12/12 02:21:14;;;;;;;6.80;2.30;;;6.30;79.00;;;;;;5050770;28;20405;-71
2021/12/12 02:37:17;;;;;;;7.68;2.58;;;6.20;79.20;;;;;;5050000;28;20499;-71
2021/12/12 02:39:43;;;;;;;5.68;1.85;;;6.30;79.20;;;;;;5052541;28;20033;-71
2021/12/12 02:42:12;;;;;;;4.70;1.75;;;6.20;79.20;;;;;;5056779;28;20420;-70
2021/12/12 02:44:41;;;;;;;4.57;1.77;;;6.30;79.10;;;;;;5057266;28;20055;-71
2021/12/12 02:47:13;;;;;;;7.20;1.85;;;6.20;78.90;;;;;;5051267;28;20029;-70
2021/12/12 02:49:56;;;;;;;7.97;2.42;;;6.20;78.90;;;;;;5048955;28;20308;-70
2021/12/12 02:52:31;;;;;;;7.97;1.88;;;6.20;78.90;;;;;;5050192;28;20497;-71
2021/12/12 02:55:04;;;;;;;6.38;1.95;;;6.10;78.80;;;;;;5056530;28;20028;-70
2021/12/12 02:57:30;;;;;;;11.57;2.00;;;6.20;78.70;;;;;;5052652;28;20083;-70
2021/12/12 02:59:55;;;;;;;4.72;1.80;;;6.20;78.30;;;;;;5061065;28;20041;-71
2021/12/12 03:02:26;;;;;;;8.00;2.15;;;6.20;78.10;;;;;;5055018;28;20110;-71
2021/12/12 03:04:55;;;;;;;6.68;1.85;;;6.20;78.30;;;;;;5052152;28;20389;-70
2021/12/12 03:07:21;;;;;;;8.90;1.83;;;6.20;78.60;;;;;;5050844;28;20053;-71
2021/12/12 03:09:51;;;;;;;6.10;1.50;;;6.30;78.40;;;;;;5046924;28;20026;-70
2021/12/12 03:12:30;;;;;;;5.88;1.67;;;6.20;78.10;;;;;;5052115;28;20036;-70
2021/12/12 03:14:58;;;;;;;5.80;1.50;;;6.30;77.90;;;;;;5056744;28;20462;-70
2021/12/12 03:17:24;;;;;;;4.13;1.63;;;6.30;77.60;;;;;;5053831;28;20025;-70
2021/12/12 03:19:59;;;;;;;4.47;1.50;;;6.30;77.40;;;;;;5049062;28;20457;-70
2021/12/12 03:22:26;;;;;;;5.30;1.80;;;6.40;76.90;;;;;;5050599;28;20033;-71
2021/12/12 03:24:52;;;;;;;7.22;1.90;;;6.40;76.40;;;;;;5053930;28;20068;-70
2021/12/12 03:27:20;;;;;;;6.43;2.00;;;6.40;76.60;;;;;;5055851;28;20104;-70
2021/12/12 03:29:48;;;;;;;4.25;1.73;;;6.50;76.80;;;;;;5056435;28;20444;-70
2021/12/12 03:32:18;;;;;;;4.75;1.50;;;6.50;76.30;;;;;;5051730;28;20027;-70
2021/12/12 03:34:47;;;;;;;4.70;1.55;;;6.50;76.60;;;;;;5048476;28;20037;-70
2021/12/12 03:37:16;;;;;;;6.28;1.70;;;6.40;76.40;;;;;;5051726;28;20086;-70
2021/12/12 03:39:45;;;;;;;6.32;1.77;;;6.40;76.70;;;;;;5053323;28;20025;-70
2021/12/12 03:42:20;;;;;;;4.43;1.70;;;6.50;75.80;;;;;;5056097;28;20104;-70
2021/12/12 03:44:47;;;;;;;4.97;1.50;;;6.50;75.70;;;;;;5054545;28;20032;-71
2021/12/12 03:47:32;;;;;;;4.32;1.80;;;6.50;75.30;;;;;;5051355;28;20096;-70
2021/12/12 03:50:01;;;;;;;5.85;1.60;;;6.60;75.20;;;;;;5048913;28;20075;-70
2021/12/12 03:52:27;;;;;;;5.05;1.50;;;6.60;75.30;;;;;;5048162;28;20459;-70
2021/12/12 03:54:58;;;;;;;2.88;1.30;;;6.60;75.30;;;;;;5052645;28;20028;-70
2021/12/12 03:57:24;;;;;;;4.28;1.50;;;6.50;75.40;;;;;;5053439;28;20028;-70
2021/12/12 03:59:49;;;;;;;3.10;1.35;;;6.60;75.00;;;;;;5056421;28;20488;-70
2021/12/12 04:02:15;;;;;;;6.03;1.38;;;6.60;74.90;;;;;;5055091;28;20028;-71
2021/12/12 04:04:43;;;;;;;5.90;1.70;;;6.60;74.70;;;;;;5051155;28;20493;-70
2021/12/12 04:07:18;;;;;;;5.60;1.60;;;6.60;74.50;;;;;;5042881;28;20029;-71
2021/12/12 04:09:44;;;;;;;4.65;1.65;;;6.50;74.60;;;;;;5055532;28;20445;-70
2021/12/12 04:12:13;;;;;;;5.07;1.50;;;6.60;74.40;;;;;;5058690;28;20493;-70
2021/12/12 04:14:39;;;;;;;4.10;1.33;;;6.70;74.00;;;;;;5057742;28;20380;-70
2021/12/12 04:17:12;;;;;;;4.88;2.00;;;6.60;74.20;;;;;;5052591;28;20444;-70
2021/12/12 04:19:38;;;;;;;5.20;1.45;;;6.70;74.00;;;;;;5051013;28;20064;-70
2021/12/12 04:22:05;;;;;;;4.45;1.92;;;6.70;73.90;;;;;;5061962;28;20553;-70
2021/12/12 04:24:35;;;;;;;5.35;1.67;;;6.70;73.70;;;;;;5060622;28;20037;-70
2021/12/12 04:27:01;;;;;;;4.78;1.63;;;6.70;73.80;;;;;;5061957;28;20029;-70
2021/12/12 04:29:49;;;;;;;5.07;1.42;;;6.70;73.80;;;;;;5060594;28;20040;-70
2021/12/12 04:32:22;;;;;;;3.85;1.40;;;6.70;73.40;;;;;;5060382;28;20539;-70
2021/12/12 04:34:55;;;;;;;5.97;1.63;;;6.70;73.70;;;;;;5061071;28;20036;-70
2021/12/12 04:37:22;;;;;;;7.25;1.60;;;6.60;73.90;;;;;;5057073;28;20029;-70
2021/12/12 04:39:53;;;;;;;4.60;1.63;;;6.60;74.40;;;;;;5056153;28;20027;-70
2021/12/12 04:42:33;;;;;;;5.47;1.63;;;6.60;74.00;;;;;;5061420;28;20032;-70
2021/12/12 04:45:29;;;;;;;5.47;1.70;;;6.60;74.30;;;;;;5060717;28;20496;-71
2021/12/12 04:51:16;;;;;;;4.25;1.70;;;6.60;74.60;;;;;;5059746;28;20051;-71
2021/12/12 04:53:45;;;;;;;3.65;1.58;;;6.60;74.40;;;;;;5058619;28;20047;-70
2021/12/12 04:56:25;;;;;;;7.43;2.20;;;6.50;75.10;;;;;;5061280;28;20029;-70
2021/12/12 04:59:14;;;;;;;4.40;1.85;;;6.40;76.00;;;;;;5059297;28;20036;-70
2021/12/12 05:01:52;;;;;;;7.93;2.65;;;6.40;75.90;;;;;;5051617;28;20040;-70
2021/12/12 05:04:29;;;;;;;7.28;2.20;;;6.30;76.40;;;;;;5049315;28;20037;-70
2021/12/12 05:07:09;;;;;;;7.22;2.33;;;6.20;77.10;;;;;;5054047;28;20029;-70
2021/12/12 05:09:49;;;;;;;6.43;2.53;;;6.10;77.10;;;;;;5057918;28;20016;-71
2021/12/12 05:12:27;;;;;;;7.32;2.28;;;6.00;77.20;;;;;;5060809;28;20146;-70
2021/12/12 05:15:12;;;;;;;8.13;2.00;;;6.00;77.70;;;;;;5056697;28;20095;-70
2021/12/12 05:17:47;;;;;;;4.20;1.63;;;5.90;77.40;;;;;;5057907;28;20109;-71
2021/12/12 05:20:19;;;;;;;4.65;1.65;;;5.90;77.10;;;;;;5059115;28;20025;-71
2021/12/12 05:22:48;;;;;;;6.13;1.80;;;6.00;78.00;;;;;;5056939;28;20032;-70
2021/12/12 05:25:18;;;;;;;6.00;2.10;;;6.00;77.70;;;;;;5052586;28;20370;-71
2021/12/12 05:27:47;;;;;;;6.32;2.20;;;5.90;77.90;;;;;;5054911;28;20055;-70
2021/12/12 05:30:17;;;;;;;4.63;1.70;;;5.90;77.50;;;;;;5058822;28;20032;-70
2021/12/12 05:32:44;;;;;;;6.25;1.83;;;5.90;77.70;;;;;;5057392;28;20032;-70
2021/12/12 05:35:12;;;;;;;5.95;1.42;;;5.80;77.90;;;;;;5057236;28;20055;-71
2021/12/12 05:37:39;;;;;;;4.85;1.90;;;5.80;78.50;;;;;;5048214;28;20032;-70
2021/12/12 05:40:08;;;;;;;7.95;2.30;;;5.60;79.70;;;;;;5052768;28;20041;-70
2021/12/12 05:42:34;;;;;;;5.72;2.22;;;5.50;80.00;;;;;;5055743;28;20059;-71
2021/12/12 05:45:04;;;;;;;4.40;2.17;;;5.50;80.30;;;;;;5053142;28;20035;-70
2021/12/12 05:47:29;;;;;;;5.78;2.00;;;5.50;80.10;;;;;;5053575;28;20009;-70
2021/12/12 05:49:57;;;;;;;6.78;1.95;;;5.50;79.80;;;;;;5048149;28;20567;-70
2021/12/12 05:52:23;;;;;;;6.47;2.20;;;5.60;79.60;;;;;;5042625;28;20021;-71
2021/12/12 05:54:50;;;;;;;4.78;2.17;;;5.50;79.40;;;;;;5052595;28;20030;-70
2021/12/12 05:57:22;;;;;;;3.92;1.60;;;5.60;79.40;;;;;;5054238;28;20405;-70
2021/12/12 05:59:50;;;;;;;4.43;1.40;;;5.50;79.60;;;;;;5051855;28;20031;-71
2021/12/12 06:02:17;;;;;;;6.70;2.20;;;5.70;79.30;;;;;;5050483;28;20037;-71
2021/12/12 06:04:43;;;;;;;4.82;2.03;;;5.70;78.50;;;;;;5048253;28;20022;-71
2021/12/12 06:07:18;;;;;;;5.13;1.70;;;5.70;78.90;;;;;;5050319;28;20041;-71
2021/12/12 06:09:47;;;;;;;7.95;1.80;;;5.70;79.10;;;;;;5052560;28;20064;-71
2021/12/12 06:12:14;;;;;;;7.30;2.28;;;5.70;79.00;;;;;;5052420;28;20029;-70
2021/12/12 06:14:41;;;;;;;8.38;2.40;;;5.70;78.40;;;;;;5051396;28;20428;-70
2021/12/12 06:17:10;;;;;;;8.00;2.30;;;5.80;78.50;;;;;;5054179;28;20028;-70
2021/12/12 06:19:37;;;;;;;9.98;2.80;;;5.80;78.40;;;;;;5050079;28;20012;-71
2021/12/12 06:22:03;;;;;;;7.78;3.00;;;5.70;78.50;;;;;;5047523;28;20086;-71
2021/12/12 06:24:32;;;;;;;5.95;2.50;;;5.70;78.30;;;;;;5056883;28;20128;-70
2021/12/12 06:27:07;;;;;;;10.05;2.47;;;5.70;78.10;;;;;;5053865;28;20131;-70
2021/12/12 06:29:33;;;;;;;7.38;2.35;;;5.70;77.90;;;;;;5056492;28;20104;-70
2021/12/12 06:32:00;;;;;;;6.72;2.25;;;5.70;78.80;;;;;;5060711;28;20028;-70
2021/12/12 06:34:25;;;;;;;6.82;1.65;;;5.70;78.30;;;;;;5055382;28;20028;-71
2021/12/12 06:36:52;;;;;;;8.85;1.80;;;5.70;78.20;;;;;;5057220;28;20040;-70
2021/12/12 06:39:22;;;;;;;5.68;1.80;;;5.70;78.40;;;;;;5059931;28;20511;-72
2021/12/12 06:41:49;;;;;;;4.68;1.42;;;5.70;78.10;;;;;;5060099;28;20041;-70
2021/12/12 06:44:16;;;;;;;7.60;2.40;;;5.70;78.90;;;;;;5061819;28;20039;-70
2021/12/12 06:46:44;;;;;;;7.70;3.03;;;5.60;78.40;;;;;;5056760;28;20082;-71
2021/12/12 06:49:13;;;;;;;10.23;3.60;;;5.70;78.60;;;;;;5055055;28;20033;-70
2021/12/12 06:51:47;;;;;;;13.80;4.60;;;5.60;77.90;;;;;;5058864;28;20111;-69
2021/12/12 06:54:17;;;;;;;;;;;5.70;78.70;;;;;;5052171;28;20552;-69
2021/12/12 06:56:43;;;;;;;12.60;4.65;;;5.70;78.30;;;;;;5056153;28;19947;-70
2021/12/12 06:59:09;;;;;;;16.33;5.20;;;5.70;78.60;;;;;;5052473;28;20041;-69
2021/12/12 07:01:35;;;;;;;17.58;6.20;;;5.70;78.10;;;;;;5053359;28;20028;-70
2021/12/12 07:04:05;;;;;;;14.43;5.70;;;5.70;78.00;;;;;;5054024;28;20036;-69
2021/12/12 07:06:31;;;;;;;11.48;5.10;;;5.70;77.60;;;;;;5053397;28;20481;-70
2021/12/12 07:09:01;;;;;;;8.55;3.22;;;5.80;77.80;;;;;;5051924;28;20029;-69
2021/12/12 07:11:27;;;;;;;6.53;2.10;;;5.80;77.20;;;;;;5056788;28;20013;-70
2021/12/12 07:13:54;;;;;;;5.60;1.90;;;5.90;76.90;;;;;;5050558;28;20028;-70
2021/12/12 07:16:21;;;;;;;6.10;1.50;;;5.90;76.50;;;;;;5052307;28;20035;-71
2021/12/12 07:18:48;;;;;;;6.20;1.70;;;5.90;76.70;;;;;;5052925;28;20025;-69
2021/12/12 07:21:15;;;;;;;4.68;1.83;;;6.00;77.40;;;;;;5049818;28;20030;-70
2021/12/12 07:23:43;;;;;;;5.10;1.70;;;6.10;77.00;;;;;;5053403;28;20032;-69
2021/12/12 07:26:11;;;;;;;3.92;1.60;;;6.10;76.80;;;;;;5050583;28;20472;-70
2021/12/12 07:28:39;;;;;;;4.82;1.77;;;6.20;77.00;;;;;;5047729;28;20068;-70
2021/12/12 07:31:08;;;;;;;5.88;2.22;;;6.20;76.90;;;;;;5051696;28;20032;-70
2021/12/12 07:33:34;;;;;;;5.95;2.13;;;6.20;76.90;;;;;;5058496;28;20397;-69
2021/12/12 07:36:03;;;;;;;5.80;2.05;;;6.20;77.30;;;;;;5060346;28;20028;-69
2021/12/12 07:38:30;;;;;;;7.13;2.35;;;6.10;77.40;;;;;;5064933;28;20040;-71
2021/12/12 07:40:57;;;;;;;6.95;2.00;;;6.10;77.90;;;;;;5059309;28;20024;-71
2021/12/12 07:43:24;;;;;;;6.30;2.10;;;6.10;78.10;;;;;;5056077;28;20506;-71
2021/12/12 07:45:49;;;;;;;8.35;2.13;;;6.10;78.60;;;;;;5059340;28;20024;-70
2021/12/12 07:48:15;;;;;;;6.07;2.30;;;6.10;77.70;;;;;;5058513;28;20029;-71
2021/12/12 07:50:44;;;;;;;6.15;2.00;;;6.20;77.60;;;;;;5063947;28;20108;-71
2021/12/12 07:53:10;;;;;;;4.60;2.00;;;6.20;77.90;;;;;;5059649;28;20120;-71
2021/12/12 07:55:40;;;;;;;4.75;1.90;;;6.30;77.80;;;;;;5055493;28;20087;-71
2021/12/12 07:58:12;;;;;;;5.43;2.45;;;6.20;78.00;;;;;;5040798;28;20107;-71
2021/12/12 08:00:45;;;;;;;9.70;2.40;;;6.20;77.70;;;;;;5059168;28;20199;-71
2021/12/12 08:03:12;;;;;;;9.93;3.17;;;6.20;77.80;;;;;;5057699;28;20494;-71
2021/12/12 08:05:39;;;;;;;6.25;2.53;;;6.30;77.90;;;;;;5063774;28;20029;-71
2021/12/12 08:08:11;;;;;;;6.45;2.67;;;6.40;77.30;;;;;;5052562;28;20039;-70
2021/12/12 08:10:39;;;;;;;6.78;2.67;;;6.40;77.30;;;;;;5053549;28;20028;-71
2021/12/12 08:13:08;;;;;;;6.15;2.40;;;6.60;77.60;;;;;;5053047;28;20052;-74
2021/12/12 08:15:34;;;;;;;6.43;2.47;;;6.70;77.60;;;;;;5053397;28;20104;-73
2021/12/12 08:18:01;;;;;;;7.75;2.80;;;6.80;77.50;;;;;;5046697;28;20695;-76
2021/12/12 08:20:30;;;;;;;6.97;2.47;;;6.80;77.00;;;;;;5055020;28;20037;-72
2021/12/12 08:22:57;;;;;;;8.55;2.70;;;6.90;77.20;;;;;;5050984;28;20037;-73
2021/12/12 08:25:25;;;;;;;9.93;2.85;;;6.90;77.00;;;;;;5052079;28;20029;-73
2021/12/12 08:27:53;;;;;;;7.07;2.47;;;7.10;75.70;;;;;;5051746;28;20044;-73
2021/12/12 08:30:20;;;;;;;9.75;2.70;;;7.40;75.40;;;;;;5049640;28;20084;-73
2021/12/12 08:32:49;;;;;;;9.75;2.67;;;8.10;72.80;;;;;;5056421;28;20048;-73
2021/12/12 08:35:16;;;;;;;8.32;3.13;;;9.00;70.40;;;;;;5051912;28;20096;-73
2021/12/12 08:37:44;;;;;;;6.85;2.75;;;10.00;67.30;;;;;;5051725;28;20441;-73
2021/12/12 08:40:14;;;;;;;9.95;3.30;;;11.30;63.30;;;;;;5051504;28;20420;-73
2021/12/12 08:42:40;;;;;;;6.18;2.72;;;12.30;61.30;;;;;;5050690;28;20060;-74
2021/12/12 08:45:09;;;;;;;10.82;3.15;;;12.70;59.40;;;;;;5051234;28;20038;-74
2021/12/12 08:47:36;;;;;;;8.10;3.50;;;12.50;60.60;;;;;;5063126;28;20556;-73
2021/12/12 08:50:08;;;;;;;7.60;3.22;;;11.80;62.30;;;;;;5056147;28;20104;-74
2021/12/12 08:52:39;;;;;;;7.20;3.08;;;11.70;62.40;;;;;;5052637;28;20028;-73
2021/12/12 08:55:16;;;;;;;6.63;2.90;;;12.10;61.50;;;;;;5055141;28;20028;-73
2021/12/12 08:57:57;;;;;;;4.97;2.38;;;11.90;61.50;;;;;;5056554;28;20429;-73
2021/12/12 09:00:25;;;;;;;12.02;2.70;;;11.30;62.20;;;;;;5055607;28;20418;-73
2021/12/12 09:02:52;;;;;;;10.00;3.53;;;11.00;63.60;;;;;;5060981;28;20032;-73
2021/12/12 09:05:23;;;;;;;9.02;2.90;;;10.50;64.60;;;;;;5058509;28;20535;-73
2021/12/12 09:07:54;;;;;;;8.63;3.05;;;10.30;64.80;;;;;;5051140;28;20048;-74
2021/12/12 09:10:30;;;;;;;6.93;2.60;;;10.60;64.40;;;;;;5052400;28;20029;-73
2021/12/12 09:13:26;;;;;;;8.15;2.40;;;10.90;64.00;;;;;;5040501;28;20036;-74
2021/12/12 09:16:41;;;;;;;8.43;2.38;;;11.20;63.40;;;;;;5042340;28;20104;-73
2021/12/12 09:19:15;;;;;;;7.40;2.38;;;11.40;63.20;;;;;;5042748;28;20441;-73
2021/12/12 09:21:50;;;;;;;;;;;11.30;63.10;;;;;;5056874;28;20036;-74
2021/12/12 09:24:26;;;;;;;9.82;3.00;;;11.50;63.00;;;;;;5058539;28;19917;-73
2021/12/12 09:26:57;;;;;;;10.82;2.83;;;11.30;62.10;;;;;;5071606;28;20717;-74
2021/12/12 09:29:56;;;;;;;6.65;2.30;;;11.40;62.30;;;;;;5062024;28;20587;-77
2021/12/12 09:32:32;;;;;;;6.03;2.35;;;11.60;61.80;;;;;;5060047;28;20054;-75
2021/12/12 09:35:24;;;;;;;7.22;2.75;;;11.50;62.40;;;;;;5052026;28;20025;-76
2021/12/12 09:38:08;;;;;;;7.05;2.60;;;11.40;62.80;;;;;;5005201;28;20042;-76
2021/12/12 09:41:09;;;;;;;8.32;2.45;;;11.40;62.70;;;;;;5005212;28;20045;-76
2021/12/12 09:43:44;;;;;;;6.55;2.78;;;11.20;63.10;;;;;;5005585;28;20506;-76
2021/12/12 09:46:31;;;;;;;6.03;2.40;;;11.20;64.00;;;;;;5005356;28;20502;-75
2021/12/12 09:52:37;;;;;;;8.35;3.05;;;11.70;63.70;;;;;;4998892;28;20084;-75
2021/12/12 09:55:15;;;;;;;8.02;2.97;;;11.60;63.40;;;;;;4921300;29;20079;-74
2021/12/12 09:57:59;;;;;;;14.20;4.50;;;11.80;63.40;;;;;;4928383;29;20118;-74
2021/12/12 10:00:28;;;;;;;10.77;4.65;;;12.00;62.70;;;;;;4929554;29;20032;-74
2021/12/12 10:03:00;;;;;;;7.93;4.10;;;12.00;63.00;;;;;;4932066;29;20036;-74
2021/12/12 10:05:50;;;;;;;10.02;4.20;;;12.10;62.80;;;;;;4932415;29;20040;-75
2021/12/12 10:08:27;;;;;;;11.40;4.53;;;12.00;62.30;;;;;;4933152;29;20039;-74
2021/12/12 10:11:05;;;;;;;11.00;3.97;;;12.30;62.40;;;;;;4931538;29;20498;-74
2021/12/12 10:13:46;;;;;;;13.00;4.57;;;12.40;61.00;;;;;;4933342;28;20039;-75
2021/12/12 10:16:26;;;;;;;14.52;3.97;;;12.70;60.90;;;;;;4968656;28;20157;-74
2021/12/12 10:18:55;;;;;;;11.50;4.20;;;12.80;60.80;;;;;;4971494;28;20521;-74
2021/12/12 10:21:25;;;;;;;7.05;3.00;;;12.80;60.60;;;;;;4977551;28;20050;-74
2021/12/12 10:23:58;;;;;;;9.95;3.78;;;12.70;60.60;;;;;;4975249;28;20105;-74
2021/12/12 10:26:33;;;;;;;11.05;3.80;;;12.70;61.10;;;;;;4978239;28;20034;-74
2021/12/12 10:29:23;;;;;;;12.13;3.80;;;12.70;61.40;;;;;;4974641;28;20042;-74
2021/12/12 10:32:01;;;;;;;9.35;3.15;;;12.80;61.50;;;;;;5008513;28;20045;-74
2021/12/12 10:34:33;;;;;;;7.43;2.80;;;12.80;60.70;;;;;;5051280;28;20408;-74
2021/12/12 10:37:16;;;;;;;9.32;3.97;;;13.00;60.40;;;;;;5054442;28;20037;-74
2021/12/12 10:39:49;;;;;;;8.10;3.30;;;13.30;61.70;;;;;;5053995;28;20060;-74
2021/12/12 10:42:24;;;;;;;6.72;3.28;;;13.30;59.70;;;;;;5054763;28;20547;-75
2021/12/12 10:45:00;;;;;;;11.10;3.40;;;13.50;60.40;;;;;;5056923;28;20041;-74
2021/12/12 10:47:36;;;;;;;7.45;2.92;;;13.50;60.00;;;;;;5051937;28;20044;-70
2021/12/12 12:09:39;;;;;;;8.90;3.08;;;16.80;54.00;;;;;;5068326;28;20981;-68
2021/12/12 12:12:18;;;;;;;7.43;3.20;;;16.60;54.70;;;;;;5066825;28;20036;-68
2021/12/12 12:15:15;;;;;;;9.65;2.80;;;16.30;54.40;;;;;;5068948;28;20421;-70
2021/12/12 12:17:49;;;;;;;8.20;3.30;;;16.50;55.40;;;;;;5065096;28;20138;-69
2021/12/12 12:20:36;;;;;;;7.88;2.75;;;16.50;55.30;;;;;;5069360;28;20343;-69
2021/12/12 12:23:48;;;;;;;7.90;2.85;;;16.50;56.10;;;;;;5068223;28;20028;-70
2021/12/12 12:29:30;;;;;;;8.60;2.92;;;16.50;54.60;;;;;;5066752;28;20498;-69
2021/12/12 12:32:24;;;;;;;8.18;2.55;;;16.60;54.60;;;;;;5065909;28;20052;-71
2021/12/12 12:35:14;;;;;;;7.72;2.75;;;16.50;54.60;;;;;;5066154;28;20480;-71
2021/12/12 12:38:03;;;;;;;9.88;2.88;;;16.70;54.40;;;;;;5063440;28;20029;-71
2021/12/12 12:40:54;;;;;;;6.22;2.50;;;16.90;54.10;;;;;;5058066;28;20028;-70
2021/12/12 12:43:50;;;;;;;6.03;2.17;;;16.90;53.30;;;;;;5058035;28;20021;-72
2021/12/12 12:46:37;;;;;;;6.07;2.25;;;17.00;54.70;;;;;;5064716;28;20743;-71
2021/12/12 12:49:42;;;;;;;6.78;2.60;;;17.30;54.00;;;;;;5065934;28;20104;-70
2021/12/12 12:52:47;;;;;;;8.18;2.40;;;17.20;53.30;;;;;;5066384;28;20038;-72
2021/12/12 12:55:29;;;;;;;6.97;2.70;;;17.20;53.10;;;;;;5061178;28;20032;-70
2021/12/12 12:58:07;;;;;;;7.57;3.08;;;17.00;53.40;;;;;;5066485;28;20043;-70
2021/12/12 13:00:35;;;;;;;6.97;2.70;;;17.10;53.90;;;;;;5060448;28;20126;-69
2021/12/12 13:03:12;;;;;;;10.73;3.00;;;17.10;53.10;;;;;;5063390;28;20025;-67
2021/12/12 13:05:57;;;;;;;9.88;3.00;;;17.00;53.90;;;;;;5064234;28;20545;-67
2021/12/12 13:08:50;;;;;;;8.95;3.10;;;17.00;53.50;;;;;;5066698;28;20416;-70
2021/12/12 13:11:51;;;;;;;7.85;2.72;;;17.00;54.10;;;;;;5062603;28;20029;-67
2021/12/12 13:14:46;;;;;;;7.40;2.58;;;17.20;53.30;;;;;;5033388;28;20121;-66
2021/12/12 13:17:21;;;;;;;10.98;3.17;;;17.30;54.10;;;;;;5030730;28;20418;-69
2021/12/12 13:19:55;;;;;;;8.63;3.80;;;17.30;54.10;;;;;;5022956;28;20053;-69
2021/12/12 13:22:24;;;;;;;10.18;3.65;;;17.40;53.80;;;;;;5001658;28;20125;-68
2021/12/12 13:25:07;;;;;;;11.02;3.95;;;17.50;53.80;;;;;;5017620;28;20468;-70
2021/12/12 13:28:05;;;;;;;6.75;2.53;;;17.60;54.00;;;;;;5015482;28;20421;-68
2021/12/12 13:30:41;;;;;;;7.57;3.35;;;17.50;53.70;;;;;;4988940;28;20021;-69
2021/12/12 13:33:09;;;;;;;5.95;2.33;;;17.50;53.40;;;;;;5008854;28;20064;-68
2021/12/12 13:35:55;;;;;;;6.68;2.40;;;17.50;53.50;;;;;;5010062;28;20112;-69
2021/12/12 13:38:41;;;;;;;7.47;2.38;;;17.50;53.20;;;;;;4996804;28;20501;-68
2021/12/12 13:41:17;;;;;;;7.85;2.65;;;17.30;53.60;;;;;;5000701;28;20040;-69
2021/12/12 13:43:54;;;;;;;8.05;2.40;;;17.10;52.90;;;;;;5004790;28;20018;-69
2021/12/12 13:46:32;;;;;;;6.97;2.50;;;16.90;53.60;;;;;;5004840;28;20125;-69
2021/12/12 13:49:35;;;;;;;5.75;2.53;;;16.80;54.80;;;;;;5004323;28;20510;-70
2021/12/12 13:52:20;;;;;;;7.90;2.65;;;16.90;54.60;;;;;;5032205;28;20041;-69
2021/12/12 13:54:56;;;;;;;10.27;2.80;;;16.70;53.90;;;;;;5039247;28;20021;-70
2021/12/12 13:57:29;;;;;;;10.18;2.58;;;16.50;54.40;;;;;;5046720;28;20049;-70
2021/12/12 14:00:16;;;;;;;7.70;2.50;;;16.30;54.80;;;;;;5045358;28;20078;-70
2021/12/12 14:02:47;;;;;;;7.32;2.35;;;16.20;55.40;;;;;;5060864;28;20076;-70
2021/12/12 14:05:22;;;;;;;9.77;3.13;;;16.20;56.10;;;;;;5044077;28;20037;-68
2021/12/12 14:07:56;;;;;;;7.25;2.40;;;16.30;56.60;;;;;;5043235;28;20663;-70
2021/12/12 14:10:25;;;;;;;7.97;2.20;;;16.40;56.00;;;;;;5045244;28;20033;-70
2021/12/12 14:12:59;;;;;;;6.60;2.78;;;16.50;55.50;;;;;;5044512;28;20039;-68
2021/12/12 14:15:28;;;;;;;8.48;2.20;;;16.50;55.00;;;;;;5044739;28;20084;-67
2021/12/12 14:17:59;;;;;;;7.18;2.10;;;16.50;54.70;;;;;;5043302;28;20108;-67
2021/12/12 14:20:36;;;;;;;8.05;2.30;;;16.50;55.20;;;;;;5024630;28;20032;-68
2021/12/12 14:23:04;;;;;;;6.70;2.00;;;16.30;54.90;;;;;;5042261;28;20477;-69
2021/12/12 14:25:32;;;;;;;8.23;2.30;;;16.30;55.10;;;;;;5045290;28;20045;-68
2021/12/12 14:28:00;;;;;;;7.03;2.40;;;16.20;55.80;;;;;;5042116;28;20578;-68
2021/12/12 14:30:31;;;;;;;8.90;2.88;;;16.00;56.00;;;;;;5043812;28;20041;-70
2021/12/12 14:33:02;;;;;;;10.38;2.90;;;16.00;56.60;;;;;;5041658;28;20026;-67
2021/12/12 14:35:46;;;;;;;8.20;2.28;;;16.00;57.10;;;;;;5045607;28;20056;-69
2021/12/12 14:38:17;;;;;;;7.93;2.40;;;16.00;56.60;;;;;;5042816;28;20051;-69
2021/12/12 14:40:54;;;;;;;8.82;2.28;;;16.00;57.00;;;;;;5039404;28;20032;-69
2021/12/12 14:43:22;;;;;;;8.63;2.30;;;16.10;56.60;;;;;;5039407;28;20025;-69
2021/12/12 14:45:57;;;;;;;11.07;2.80;;;16.00;57.20;;;;;;5041631;28;20024;-69
2021/12/12 14:48:36;;;;;;;10.63;3.33;;;15.90;57.20;;;;;;5042154;28;20037;-69
2021/12/12 14:51:13;;;;;;;9.20;2.80;;;15.90;57.40;;;;;;5041526;28;20109;-67
2021/12/12 14:53:44;;;;;;;8.95;3.00;;;15.80;57.60;;;;;;5041739;28;20029;-68
2021/12/12 14:56:16;;;;;;;9.85;3.17;;;15.90;57.70;;;;;;5043973;28;20032;-69
2021/12/12 14:58:51;;;;;;;9.82;3.22;;;15.90;58.10;;;;;;5037494;28;20056;-67
2021/12/12 15:01:31;;;;;;;8.40;2.92;;;15.90;57.90;;;;;;5040219;28;20083;-69
2021/12/12 15:04:00;;;;;;;7.43;2.30;;;15.70;58.20;;;;;;5048160;28;20458;-69
2021/12/12 15:06:32;;;;;;;9.13;2.65;;;15.40;58.10;;;;;;5041099;28;20021;-68
2021/12/12 15:09:20;;;;;;;7.53;2.50;;;15.30;59.60;;;;;;5044172;28;20048;-66
2021/12/12 15:11:57;;;;;;;9.70;3.20;;;15.10;59.80;;;;;;5040845;28;20029;-69